WeatherOLA & Area Weather Station Summaries and History

Weather history for Indianola, Kingston, Poulsbo, Bainbridge Island, Silverdale other area weather stations. Select a station for detailed historical weather information of any date and time in five minute intervals. Great for looking up the timing of interesting weather events that are closest to you.

Station Historical Data
 
Daily Summary for August 17, 2017 Units:  English    Metric   Both
« Previous Day
Next Day »
Daily Weekly Monthly Yearly Custom
  Current: High: Low: Average:
Temperature: 73.9 °F 74.1 °F 59.2 °F 63 °F
Dew Point: 61 °F 61.2 °F 55.2 °F 57.6 °F
Humidity: 64% 92% 64% 83%
Wind Speed: 2.3mph 4mph 0mph 0.7mph
Wind Gust: 2.3mph 4mph - -
WindNorth - - South
Pressure: 30.1 in 30.2 in 30.1 in -
Precipitation: 0 in      
Historical Graphs
 
 
Tabular Data for August 17, 2017
Time Temperature Dew Point Pressure Wind Wind Speed Wind Gust Humidity Rainfall Rate (Hourly) solar Conditions
00:00 60.1 °F 57.4 °F 30.1 in WSW 2.3 mph   91% 0 in WeatherDisplay:10.37 W/m2 CLR
00:05 60.1 °F 57.6 °F 30.1 in Calm     91% 0 in WeatherDisplay:10.37 W/m2 CLR
00:10 60.3 °F 57.6 °F 30.1 in WSW 1.2 mph 1.2 mph 91% 0 in WeatherDisplay:10.37 W/m2 CLR
00:15 60.3 °F 57.9 °F 30.1 in WSW 1.2 mph 1.2 mph 92% 0 in WeatherDisplay:10.37 W/m2 CLR
00:20 60.3 °F 57.7 °F 30.1 in East 1.2 mph 1.2 mph 91% 0 in WeatherDisplay:10.37 W/m2 CLR
00:25 60.4 °F 58.1 °F 30.1 in Calm     92% 0 in WeatherDisplay:10.37 W/m2 CLR
00:30 60.4 °F 57.9 °F 30.1 in Calm     91% 0 in WeatherDisplay:10.37 W/m2 CLR
00:35 60.4 °F 57.9 °F 30.1 in Calm     91% 0 in WeatherDisplay:10.37 W/m2 CLR
00:40 60.4 °F 57.7 °F 30.1 in ESE 1.2 mph 1.2 mph 91% 0 in WeatherDisplay:10.37 W/m2 CLR
00:45 60.4 °F 57.7 °F 30.1 in ESE 1 mph   91% 0 in WeatherDisplay:10.37 W/m2 CLR
00:50 60.3 °F 57.7 °F 30.1 in ESE 1.2 mph 1.2 mph 91% 0 in WeatherDisplay:10.37 W/m2 CLR
00:55 60.3 °F 57.7 °F 30.1 in Calm     91% 0 in WeatherDisplay:10.37 W/m2 CLR
01:00 60.3 °F 57.6 °F 30.1 in Calm     91% 0 in WeatherDisplay:10.37 W/m2 CLR
01:05 60.3 °F 57.7 °F 30.1 in ESE 1 mph 1 mph 91% 0 in WeatherDisplay:10.37 W/m2 CLR
01:10 60.3 °F 57.6 °F 30.1 in Calm     91% 0 in WeatherDisplay:10.37 W/m2 CLR
01:15 60.1 °F 57.4 °F 30.1 in ESE 1.2 mph 1.2 mph 91% 0 in WeatherDisplay:10.37 W/m2 CLR
01:20 59.9 °F 57.4 °F 30.1 in Calm     91% 0 in WeatherDisplay:10.37 W/m2 CLR
01:25 59.9 °F 57.4 °F 30.1 in Calm     91% 0 in WeatherDisplay:10.37 W/m2 CLR
01:30 59.9 °F 57.4 °F 30.1 in Calm     91% 0 in WeatherDisplay:10.37 W/m2 CLR
01:35 59.9 °F 57.4 °F 30.1 in ESE 1 mph   91% 0 in WeatherDisplay:10.37 W/m2 CLR
01:40 59.9 °F 57.4 °F 30.1 in Calm     91% 0 in WeatherDisplay:10.37 W/m2 CLR
01:45 59.9 °F 57.4 °F 30.1 in ESE 1.2 mph 1.2 mph 91% 0 in WeatherDisplay:10.37 W/m2 CLR
01:50 59.9 °F 57.4 °F 30.1 in Calm     91% 0 in WeatherDisplay:10.37 W/m2 CLR
01:55 59.9 °F 57.4 °F 30.1 in Calm     91% 0 in WeatherDisplay:10.37 W/m2 CLR
02:00 59.9 °F 57.4 °F 30.1 in ESE 1 mph   91% 0 in WeatherDisplay:10.37 W/m2 CLR
02:05 59.7 °F 57.2 °F 30.1 in ESE 3.5 mph 3.5 mph 91% 0 in WeatherDisplay:10.37 W/m2 CLR
02:10 59.7 °F 57 °F 30.1 in ESE 1.2 mph   91% 0 in WeatherDisplay:10.37 W/m2 CLR
02:15 59.7 °F 57 °F 30.1 in Calm     91% 0 in WeatherDisplay:10.37 W/m2 CLR
02:20 59.5 °F 57 °F 30.1 in East 1.2 mph 1.2 mph 91% 0 in WeatherDisplay:10.37 W/m2 CLR
02:25 59.5 °F 57 °F 30.1 in ESE 2.3 mph 2.3 mph 91% 0 in WeatherDisplay:10.37 W/m2 CLR
02:30 59.5 °F 57 °F 30.1 in Calm     91% 0 in WeatherDisplay:10.37 W/m2 CLR
02:35 59.5 °F 57 °F 30.1 in ESE 1.2 mph   91% 0 in WeatherDisplay:10.37 W/m2 CLR
02:37 59.5 °F 57 °F 30.1 in ESE 1.2 mph 1.2 mph 91% 0 in WeatherDisplay:10.37 W/m2 CLR
02:42 59.5 °F 56.7 °F 30.1 in ESE 1.2 mph   90% 0 in WeatherDisplay:10.37 W/m2 CLR
02:47 59.5 °F 56.7 °F 30.1 in East 2 mph 2 mph 90% 0 in WeatherDisplay:10.37 W/m2 CLR
02:52 59.5 °F 56.7 °F 30.1 in ESE 1.2 mph 1.2 mph 90% 0 in WeatherDisplay:10.37 W/m2 CLR
02:57 59.5 °F 56.7 °F 30.1 in Calm     90% 0 in WeatherDisplay:10.37 W/m2 CLR
02:59 59.5 °F 56.7 °F 30.1 in Calm     90% 0 in WeatherDisplay:10.37 W/m2 CLR
03:04 59.5 °F 56.7 °F 30.1 in Calm   0.1 mph 90% 0 in WeatherDisplay:10.37 W/m2 CLR
03:09 59.7 °F 56.8 °F 30.1 in Calm     90% 0 in WeatherDisplay:10.37 W/m2 CLR
03:14 59.7 °F 56.8 °F 30.1 in Calm     90% 0 in WeatherDisplay:10.37 W/m2 CLR
03:19 59.9 °F 57 °F 30.1 in WSW 2.3 mph   90% 0 in WeatherDisplay:10.37 W/m2 CLR
03:24 59.9 °F 57 °F 30.1 in Calm     90% 0 in WeatherDisplay:10.37 W/m2 CLR
03:29 59.9 °F 57 °F 30.1 in Calm     90% 0 in WeatherDisplay:10.37 W/m2 CLR
03:34 59.9 °F 56.7 °F 30.1 in WSW 1.2 mph   89% 0 in WeatherDisplay:10.37 W/m2 CLR
03:39 59.9 °F 56.7 °F 30.1 in Calm     89% 0 in WeatherDisplay:10.37 W/m2 CLR
03:44 59.9 °F 56.7 °F 30.1 in Calm     89% 0 in WeatherDisplay:10.37 W/m2 CLR
03:49 59.9 °F 56.7 °F 30.1 in Calm     89% 0 in WeatherDisplay:10.37 W/m2 CLR
03:55 59.9 °F 56.7 °F 30.1 in Calm     89% 0 in WeatherDisplay:10.37 W/m2 CLR
04:00 59.9 °F 56.3 °F 30.1 in Calm     88% 0 in WeatherDisplay:10.37 W/m2 CLR
04:05 59.9 °F 56.3 °F 30.1 in Calm     88% 0 in WeatherDisplay:10.37 W/m2 CLR
04:10 59.9 °F 56.3 °F 30.1 in Calm     88% 0 in WeatherDisplay:10.37 W/m2 CLR
04:15 59.9 °F 56.3 °F 30.1 in WSW 1 mph 1 mph 88% 0 in WeatherDisplay:10.37 W/m2 CLR
04:20 59.9 °F 56.3 °F 30.1 in Calm     88% 0 in WeatherDisplay:10.37 W/m2 CLR
04:25 59.9 °F 56.3 °F 30.1 in Calm     88% 0 in WeatherDisplay:10.37 W/m2 CLR
04:30 59.9 °F 55.9 °F 30.1 in Calm     87% 0 in WeatherDisplay:10.37 W/m2 CLR
04:35 59.9 °F 55.9 °F 30.1 in Calm     87% 0 in WeatherDisplay:10.37 W/m2 CLR
04:40 59.9 °F 55.9 °F 30.1 in Calm   0.1 mph 87% 0 in WeatherDisplay:10.37 W/m2 CLR
04:45 59.7 °F 55.9 °F 30.1 in WSW 1.2 mph   87% 0 in WeatherDisplay:10.37 W/m2 CLR
04:50 59.7 °F 55.8 °F 30.1 in SE 1.2 mph 1.2 mph 87% 0 in WeatherDisplay:10.37 W/m2 CLR
04:55 59.5 °F 55.4 °F 30.1 in Calm     86% 0 in WeatherDisplay:10.37 W/m2 CLR
05:00 59.5 °F 55.4 °F 30.1 in Calm     86% 0 in WeatherDisplay:10.37 W/m2 CLR
05:05 59.5 °F 55.4 °F 30.1 in Calm     86% 0 in WeatherDisplay:10.37 W/m2 CLR
05:10 59.5 °F 55.2 °F 30.1 in ESE 1.2 mph 1.2 mph 86% 0 in WeatherDisplay:10.37 W/m2 CLR
05:15 59.5 °F 55.2 °F 30.1 in Calm     86% 0 in WeatherDisplay:10.37 W/m2 CLR
05:20 59.5 °F 55.6 °F 30.1 in Calm     87% 0 in WeatherDisplay:10.37 W/m2 CLR
05:25 59.5 °F 55.6 °F 30.1 in Calm     87% 0 in WeatherDisplay:10.37 W/m2 CLR
05:30 59.5 °F 55.6 °F 30.1 in Calm     87% 0 in WeatherDisplay:10.37 W/m2 CLR
05:35 59.4 °F 55.6 °F 30.1 in Calm     87% 0 in WeatherDisplay:10.37 W/m2 CLR
05:40 59.5 °F 55.6 °F 30.1 in Calm     87% 0 in WeatherDisplay:10.37 W/m2 CLR
05:45 59.5 °F 55.6 °F 30.1 in Calm     87% 0 in WeatherDisplay:10.37 W/m2 CLR
05:50 59.4 °F 55.6 °F 30.1 in Calm     87% 0 in WeatherDisplay:10.37 W/m2 CLR
05:55 59.4 °F 55.6 °F 30.1 in ESE 1.2 mph   87% 0 in WeatherDisplay:10.37 W/m2 CLR
06:00 59.4 °F 55.6 °F 30.1 in ESE 2.3 mph 2.3 mph 87% 0 in WeatherDisplay:10.37 W/m2 CLR
06:05 59.4 °F 55.6 °F 30.1 in Calm     87% 0 in WeatherDisplay:10.37 W/m2 CLR
06:10 59.4 °F 55.6 °F 30.1 in Calm     87% 0 in WeatherDisplay:10.37 W/m2 CLR
06:15 59.4 °F 55.6 °F 30.1 in SW 1 mph   87% 0 in WeatherDisplay:10.37 W/m2 CLR
06:20 59.4 °F 55.4 °F 30.1 in Calm     87% 0 in WeatherDisplay:10.37 W/m2 CLR
06:25 59.4 °F 55.4 °F 30.1 in Calm     87% 0 in WeatherDisplay:10.37 W/m2 CLR
06:30 59.4 °F 55.4 °F 30.1 in Calm     87% 0 in WeatherDisplay:10.37 W/m2 CLR
06:35 59.4 °F 55.4 °F 30.1 in Calm     87% 0 in WeatherDisplay:10.37 W/m2 CLR
06:40 59.4 °F 55.4 °F 30.1 in Calm     87% 0 in WeatherDisplay:10.37 W/m2 CLR
06:45 59.2 °F 55.2 °F 30.1 in Calm     87% 0 in WeatherDisplay:10.37 W/m2 CLR
06:50 59.2 °F 55.2 °F 30.1 in Calm     87% 0 in WeatherDisplay:10.37 W/m2 CLR
06:55 59.2 °F 55.2 °F 30.1 in SSE 1.2 mph 1.2 mph 87% 0 in WeatherDisplay:10.37 W/m2 CLR
07:00 59.2 °F 55.2 °F 30.1 in Calm     87% 0 in WeatherDisplay:10.37 W/m2 CLR
07:05 59.2 °F 55.2 °F 30.1 in Calm     87% 0 in WeatherDisplay:10.37 W/m2 CLR
07:10 59.2 °F 55.2 °F 30.1 in Calm     87% 0 in WeatherDisplay:10.37 W/m2 CLR
07:15 59.2 °F 55.2 °F 30.1 in Calm     87% 0 in WeatherDisplay:10.37 W/m2 CLR
07:20 59.2 °F 55.2 °F 30.1 in Calm     87% 0 in WeatherDisplay:10.37 W/m2 CLR
07:25 59.2 °F 55.2 °F 30.1 in ESE 1.2 mph   87% 0 in WeatherDisplay:10.37 W/m2 CLR
07:30 59.4 °F 55.8 °F 30.1 in Calm     88% 0 in WeatherDisplay:10.37 W/m2 CLR
07:35 59.4 °F 55.8 °F 30.2 in Calm     88% 0 in WeatherDisplay:10.37 W/m2 CLR
07:40 59.4 °F 55.8 °F 30.2 in ESE 1.2 mph   88% 0 in WeatherDisplay:10.37 W/m2 CLR
07:45 59.5 °F 55.9 °F 30.2 in Calm     88% 0 in WeatherDisplay:10.37 W/m2 CLR
07:50 59.5 °F 56.5 °F 30.2 in ESE 1.2 mph 1.2 mph 89% 0 in WeatherDisplay:10.37 W/m2 CLR
07:55 59.5 °F 56.5 °F 30.2 in Calm     89% 0 in WeatherDisplay:10.37 W/m2 CLR
08:00 59.7 °F 56.5 °F 30.2 in Calm     89% 0 in WeatherDisplay:10.37 W/m2 CLR
08:05 59.9 °F 56.7 °F 30.2 in WSW 2.3 mph   89% 0 in WeatherDisplay:10.37 W/m2 CLR
08:10 59.9 °F 57 °F 30.2 in WSW 1 mph   90% 0 in WeatherDisplay:10.37 W/m2 CLR
08:15 59.9 °F 56.7 °F 30.2 in WSW 1.2 mph   89% 0 in WeatherDisplay:10.37 W/m2 CLR
08:20 59.9 °F 56.7 °F 30.2 in WSW 1 mph   89% 0 in WeatherDisplay:10.37 W/m2 CLR
08:25 59.9 °F 56.3 °F 30.2 in ESE 3.5 mph   88% 0 in WeatherDisplay:10.37 W/m2 CLR
08:30 60.1 °F 56.5 °F 30.2 in Calm   0.1 mph 88% 0 in WeatherDisplay:10.37 W/m2 CLR
08:35 60.4 °F 56.8 °F 30.2 in Calm     88% 0 in WeatherDisplay:10.37 W/m2 CLR
08:40 60.6 °F 57 °F 30.2 in Calm     88% 0 in WeatherDisplay:10.37 W/m2 CLR
08:45 61 °F 57.4 °F 30.2 in Calm     88% 0 in WeatherDisplay:10.37 W/m2 CLR
08:50 61.2 °F 57.4 °F 30.2 in Calm     87% 0 in WeatherDisplay:10.37 W/m2 CLR
08:55 61.5 °F 57.6 °F 30.2 in ESE 2.3 mph 2.3 mph 87% 0 in WeatherDisplay:10.37 W/m2 CLR
09:00 61.7 °F 57.6 °F 30.2 in Calm     86% 0 in WeatherDisplay:10.37 W/m2 CLR
09:05 62.1 °F 57.4 °F 30.2 in Calm     85% 0 in WeatherDisplay:10.37 W/m2 CLR
09:10 62.4 °F 57.6 °F 30.2 in ESE 1.2 mph   84% 0 in WeatherDisplay:10.37 W/m2 CLR
09:15 62.8 °F 57.7 °F 30.2 in ESE 1.2 mph 1.2 mph 84% 0 in WeatherDisplay:10.37 W/m2 CLR
09:20 62.6 °F 57.4 °F 30.2 in East 1.2 mph   83% 0 in WeatherDisplay:10.37 W/m2 CLR
09:25 62.6 °F 57.7 °F 30.2 in Calm     84% 0 in WeatherDisplay:10.37 W/m2 CLR
09:30 62.6 °F 57.4 °F 30.2 in Calm     83% 0 in WeatherDisplay:10.37 W/m2 CLR
09:35 62.8 °F 57.6 °F 30.2 in Calm     83% 0 in WeatherDisplay:10.37 W/m2 CLR
09:40 63.1 °F 58.3 °F 30.2 in ESE 1.2 mph 1.2 mph 84% 0 in WeatherDisplay:10.37 W/m2 CLR
09:46 63.3 °F 58.1 °F 30.2 in Calm     83% 0 in WeatherDisplay:10.37 W/m2 CLR
09:51 63.7 °F 58.1 °F 30.2 in Calm     82% 0 in WeatherDisplay:10.37 W/m2 CLR
09:56 64 °F 58.5 °F 30.2 in East 1.2 mph 1.2 mph 82% 0 in WeatherDisplay:10.37 W/m2 CLR
10:01 63.9 °F 57.9 °F 30.2 in Calm     81% 0 in WeatherDisplay:10.37 W/m2 CLR
10:06 63.9 °F 57.9 °F 30.2 in South 2.3 mph 2.3 mph 81% 0 in WeatherDisplay:10.37 W/m2 CLR
10:11 63.7 °F 58.1 °F 30.2 in Calm     82% 0 in WeatherDisplay:10.37 W/m2 CLR
10:16 63.9 °F 58.3 °F 30.2 in SE 2.3 mph 2.3 mph 82% 0 in WeatherDisplay:10.37 W/m2 CLR
10:21 64 °F 58.5 °F 30.2 in Calm     82% 0 in WeatherDisplay:10.37 W/m2 CLR
10:26 64.6 °F 58.5 °F 30.2 in Calm     81% 0 in WeatherDisplay:10.37 W/m2 CLR
10:31 64.9 °F 58.8 °F 30.2 in SE 1.2 mph   81% 0 in WeatherDisplay:10.37 W/m2 CLR
10:36 65.3 °F 58.6 °F 30.2 in West 1.2 mph   79% 0 in WeatherDisplay:10.37 W/m2 CLR
10:41 65.5 °F 58.5 °F 30.2 in South 3.5 mph 3.5 mph 78% 0 in WeatherDisplay:10.37 W/m2 CLR
10:46 65.5 °F 58.5 °F 30.2 in Calm     78% 0 in WeatherDisplay:10.37 W/m2 CLR
10:51 65.7 °F 59 °F 30.2 in Calm   0.1 mph 79% 0 in WeatherDisplay:10.37 W/m2 CLR
10:56 65.8 °F 58.5 °F 30.2 in Calm     77% 0 in WeatherDisplay:10.37 W/m2 CLR
11:01 66.2 °F 58.5 °F 30.2 in South 1.2 mph   76% 0 in WeatherDisplay:10.37 W/m2 CLR
11:06 66.4 °F 58.5 °F 30.2 in Calm     76% 0 in WeatherDisplay:10.37 W/m2 CLR
11:11 66.6 °F 59.2 °F 30.2 in Calm     77% 0 in WeatherDisplay:10.37 W/m2 CLR
11:16 66.6 °F 58.8 °F 30.2 in Calm     76% 0 in WeatherDisplay:10.37 W/m2 CLR
11:21 66.7 °F 59 °F 30.2 in Calm     76% 0 in WeatherDisplay:10.37 W/m2 CLR
11:26 66.9 °F 59.2 °F 30.2 in Calm     76% 0 in WeatherDisplay:10.37 W/m2 CLR
11:31 66.9 °F 59.2 °F 30.2 in Calm     76% 0 in WeatherDisplay:10.37 W/m2 CLR
11:36 67.1 °F 58.8 °F 30.2 in NW 1.2 mph   75% 0 in WeatherDisplay:10.37 W/m2 CLR
11:41 67.5 °F 58.8 °F 30.2 in ENE 2.3 mph 2.3 mph 74% 0 in WeatherDisplay:10.37 W/m2 CLR
11:46 68 °F 59.4 °F 30.2 in SE 2.3 mph 2.3 mph 74% 0 in WeatherDisplay:10.37 W/m2 CLR
11:51 68.5 °F 59.5 °F 30.2 in SSW 2.3 mph 2.3 mph 73% 0 in WeatherDisplay:10.37 W/m2 CLR
11:56 69.3 °F 59.7 °F 30.2 in SSE 2.3 mph 2.3 mph 72% 0 in WeatherDisplay:10.37 W/m2 CLR
12:01 69.4 °F 59.7 °F 30.2 in SSW 1.2 mph   71% 0 in WeatherDisplay:10.37 W/m2 CLR
12:06 70.2 °F 59.9 °F 30.2 in NW 1.2 mph 1.2 mph 70% 0 in WeatherDisplay:10.37 W/m2 CLR
12:11 70.3 °F 59.7 °F 30.2 in WNW 1.2 mph 1.2 mph 69% 0 in WeatherDisplay:10.37 W/m2 CLR
12:16 70.9 °F 60.1 °F 30.2 in SW 1.2 mph 1.2 mph 69% 0 in WeatherDisplay:10.37 W/m2 CLR
12:21 71.2 °F 60.4 °F 30.2 in Calm     69% 0 in WeatherDisplay:10.37 W/m2 CLR
12:26 72.1 °F 61 °F 30.2 in SW 2.3 mph 2.3 mph 68% 0 in WeatherDisplay:10.37 W/m2 CLR
12:27 72.1 °F 60.4 °F 30.2 in SW 2.3 mph 2.3 mph 67% 0 in WeatherDisplay:10.37 W/m2 CLR
12:32 72.7 °F 60.6 °F 30.2 in SW 1.2 mph   66% 0 in WeatherDisplay:10.37 W/m2 CLR
12:37 72.9 °F 60.3 °F 30.2 in South 2.3 mph 2.3 mph 65% 0 in WeatherDisplay:10.37 W/m2 CLR
12:42 73 °F 60.4 °F 30.2 in South 1.2 mph 1.2 mph 65% 0 in WeatherDisplay:10.37 W/m2 CLR
12:47 73.2 °F 60.6 °F 30.2 in South 1.2 mph   65% 0 in WeatherDisplay:10.37 W/m2 CLR
12:52 72.7 °F 60.6 °F 30.2 in Calm     66% 0 in WeatherDisplay:10.37 W/m2 CLR
12:57 73.2 °F 60.6 °F 30.2 in West 1.2 mph 1.2 mph 65% 0 in WeatherDisplay:10.37 W/m2 CLR
13:02 73.8 °F 60.8 °F 30.2 in WSW 2 mph 2 mph 64% 0 in WeatherDisplay:10.37 W/m2 CLR
13:07 73.2 °F 60.3 °F 30.2 in WNW 1.2 mph 1.2 mph 64% 0 in WeatherDisplay:10.37 W/m2 CLR
13:12 72.1 °F 60.3 °F 30.2 in WNW 1.2 mph 1.2 mph 66% 0 in WeatherDisplay:10.37 W/m2 CLR
13:17 71.8 °F 60.3 °F 30.2 in West 1.2 mph 1.2 mph 67% 0 in WeatherDisplay:10.37 W/m2 CLR
13:22 71.8 °F 60.3 °F 30.2 in SSW 1.2 mph 1.2 mph 67% 0 in WeatherDisplay:10.37 W/m2 CLR
13:27 71.8 °F 60.3 °F 30.2 in SSW 1.2 mph 1.2 mph 67% 0 in WeatherDisplay:10.37 W/m2 CLR
13:32 72.1 °F 60.3 °F 30.2 in SSW 2.3 mph 2.3 mph 66% 0 in WeatherDisplay:10.37 W/m2 CLR
13:37 73 °F 61 °F 30.2 in NW 3.5 mph 3.5 mph 66% 0 in WeatherDisplay:10.37 W/m2 CLR
13:42 73.8 °F 61 °F 30.2 in SW 1.2 mph 1.2 mph 64% 0 in WeatherDisplay:10.37 W/m2 CLR
13:47 74.1 °F 61.2 °F 30.2 in WNW 2.3 mph   64% 0 in WeatherDisplay:10.37 W/m2 CLR
13:52 73.8 °F 60.8 °F 30.2 in West 1.2 mph 1.2 mph 64% 0 in WeatherDisplay:10.37 W/m2 CLR
13:57 73 °F 60.1 °F 30.2 in Calm   0.1 mph 64% 0 in WeatherDisplay:10.37 W/m2 CLR
14:02 72.7 °F 60.6 °F 30.2 in SSW 4 mph 4 mph 66% 0 in WeatherDisplay:10.37 W/m2 CLR
14:07 73.2 °F 61.2 °F 30.2 in SW 1.2 mph   66% 0 in WeatherDisplay:10.37 W/m2 CLR
14:12 73.6 °F 60.6 °F 30.2 in SW 1.2 mph   64% 0 in WeatherDisplay:10.37 W/m2 CLR
14:17 73.2 °F 60.8 °F 30.2 in SW 1.2 mph   65% 0 in WeatherDisplay:10.37 W/m2 CLR
14:22 73.9 °F 61 °F 30.1 in North 2.3 mph 2.3 mph 64% 0 in WeatherDisplay:10.37 W/m2 CLR
Indianola, WA, USA
Compliments of Weather Underground - 2.5 mb